FBFT

Details ICAO FBFT (FRW)
Name FRANCISTOWN
Region Botswana
Timezone Africa/Gaborone (UTC+2.0)
Plans Departing 2
Arriving 10
Stats Elevation 3,283 ft / 1,001 m (AMSL)
Location -21.162925° 27.480458°
Runways 2
Magnetic Variation 11.437° W
Sunrise 2017-12-12 03:23:17 UTC / 2017-12-12 05:23:17 Local
Sunset 2017-12-12 16:47:08 UTC / 2017-12-12 18:47:08 Local
Advertisement - Login to hide

Runways

ID Width Length Bearing (true) Bearing (mag) Surface Threshold Offset Overrun Length
11 98 ft / 30 m 7,186 ft / 2,190 m 97.38° 108.82° Asphalt 0 ft / 0 m 98 ft / 30 m
16 72 ft / 22 m 4,186 ft / 1,276 m 146.16° 157.60° Gravel 0 ft / 0 m 0 ft / 0 m
29 98 ft / 30 m 7,186 ft / 2,190 m 277.37° 288.81° Asphalt 0 ft / 0 m 111 ft / 34 m
34 72 ft / 22 m 4,186 ft / 1,276 m 326.16° 337.60° Gravel 0 ft / 0 m 0 ft / 0 m

Map

Weather


0- 5 10 15 20 25 30 35+ Temperature / ° C

Clouds and Precipitation
Forecast for 2017-12-12 06:00 UTC. Updated 2 hours ago

Ground ~20,000 ft ~40,000 ft Winds

METAR

FBFT 120500Z 34013KT 310V010 CAVOK 23/16 Q1016

TAF

Not found

Frequencies

Tower 118.10 MHz TWR
Approach 125.70 MHz APP
Warning: Do not use this data for real-world aviation or navigation. No guarantee of current accuracy is given.